Impacts METAR Board
IDs:

KCVG - Cincinnati Intl, KY, US

Updated at: 1300 UTC 23 Jun 2018
Potential Impact None Slight Moderate High
Time 23/01Z 23/02Z 23/03Z 23/04Z 23/05Z 23/06Z 23/07Z 23/08Z 23/09Z 23/10Z 23/11Z 23/12Z 23/13Z
Temp69 68 68 68 67 67 67 68 67 66 67 67 68
Dewpt66 66 66 65 65 65 65 64 64 64 64 64 65
Altim29.68 29.70 29.70 29.71 29.71 29.71 29.71 29.72 29.74 29.75 29.77 29.78 29.79
VIS10 10 9 10 10 9 8 9 8 10 6 2 7
CIG-- 200 200 -- 12 11 14 7 18 -- 14 6 17
CoverSCTBKNBKNFEWBKNBKNOVCOVCOVCSCTOVCOVCOVC
FltCatVFRVFRVFRVFRMVFRMVFRMVFRIFRMVFRVFRMVFRIFRMVFR
WX--------------------BRBR--
WDir200180200190200220230210240230230260220
WSpd3 4 4 7 5 8 8 6 6 4 5 6 7
WGst-- -- -- -- -- -- -- -- -- -- -- -- --
Raw hourly METARs
KCVG 230052Z 20003KT 10SM R18C/6000VP6000FT FEW015 FEW120 SCT250 21/19 A2968 RMK AO2 SLP041 T02060189
KCVG 230152Z 18004KT 10SM SCT110 BKN200 20/19 A2970 RMK AO2 SLP046 T02000189
KCVG 230252Z 20004KT 9SM FEW020 SCT110 BKN200 20/19 A2970 RMK AO2 SLP048 T02000189 53007
KCVG 230352Z 19007KT 10SM FEW028 FEW110 20/18 A2971 RMK AO2 SLP051 T02000183
KCVG 230452Z 20005KT 10SM BKN012 19/18 A2971 RMK AO2 SLP050 T01940183 402670189
KCVG 230552Z 22008KT 9SM BKN011 19/18 A2971 RMK AO2 SLP050 T01940183 10217 20189 50003
KCVG 230652Z 23008KT 8SM SCT008 OVC014 19/18 A2971 RMK AO2 CIG 006 36R SLP051 T01940183
KCVG 230752Z 21006KT 9SM BKN007 OVC013 20/18 A2972 RMK AO2 CIG 005V010 SLP054 T02000178
KCVG 230852Z 24006KT 8SM SCT008 BKN018 OVC023 19/18 A2974 RMK AO2 CIG 010 36R SLP062 T01940178 53009
KCVG 230952Z 23004KT 10SM FEW007 FEW018 SCT120 19/18 A2975 RMK AO2 SLP066 T01890178
KCVG 231103Z 23005KT 6SM BR BKN014 OVC020 19/18 A2977 RMK AO2 T01940178
KCVG 231152Z COR 26006KT 2SM BR BKN006 OVC013 19/18 A2978 RMK AO2 SFC VIS 4 RAB40RAE49 SLP077 P0000 60000 70011 T01940178 10200 20189 53015 $
KCVG 231252Z 22007KT 7SM FEW007 BKN017 OVC036 20/18 A2979 RMK AO2 RAB1155E07 SLP080 P0000 T02000183 $



Page loaded:  13:54 UTC  |   06:54 AM Pacific  |   07:54 AM Mountain  |   08:54 AM Central  |   09:54 AM Eastern

 

ADVISORIES

FORECASTS

FORECASTS

OBSERVATIONS

USER TOOLS

ABOUT US